sensor_id;sensor_type;location;lat;lon;timestamp;P1;durP1;ratioP1;P2;durP2;ratioP2
51907;SDS011;39320;53.214;6.556;2023-04-24T00:00:15;1.80;;;1.50;;
51907;SDS011;39320;53.214;6.556;2023-04-24T00:02:42;1.58;;;1.48;;
51907;SDS011;39320;53.214;6.556;2023-04-24T00:05:13;2.45;;;2.00;;
51907;SDS011;39320;53.214;6.556;2023-04-24T00:07:40;2.65;;;1.90;;
51907;SDS011;39320;53.214;6.556;2023-04-24T00:10:07;2.13;;;1.83;;
51907;SDS011;39320;53.214;6.556;2023-04-24T00:12:33;2.30;;;2.08;;
51907;SDS011;39320;53.214;6.556;2023-04-24T00:14:59;2.63;;;2.30;;
51907;SDS011;39320;53.214;6.556;2023-04-24T00:17:25;2.10;;;1.98;;
51907;SDS011;39320;53.214;6.556;2023-04-24T00:19:51;2.63;;;2.10;;
51907;SDS011;39320;53.214;6.556;2023-04-24T00:22:23;2.40;;;2.20;;
51907;SDS011;39320;53.214;6.556;2023-04-24T00:24:49;4.07;;;2.90;;
51907;SDS011;39320;53.214;6.556;2023-04-24T00:27:15;2.70;;;2.40;;
51907;SDS011;39320;53.214;6.556;2023-04-24T00:29:41;2.78;;;2.58;;
51907;SDS011;39320;53.214;6.556;2023-04-24T00:32:06;3.17;;;2.88;;
51907;SDS011;39320;53.214;6.556;2023-04-24T00:34:32;2.95;;;2.75;;
51907;SDS011;39320;53.214;6.556;2023-04-24T00:36:58;2.30;;;2.10;;
51907;SDS011;39320;53.214;6.556;2023-04-24T00:39:23;3.00;;;1.90;;
51907;SDS011;39320;53.214;6.556;2023-04-24T00:41:49;1.75;;;1.65;;
51907;SDS011;39320;53.214;6.556;2023-04-24T00:44:16;1.50;;;1.40;;
51907;SDS011;39320;53.214;6.556;2023-04-24T00:46:42;1.65;;;1.27;;
51907;SDS011;39320;53.214;6.556;2023-04-24T00:49:07;1.42;;;1.15;;
51907;SDS011;39320;53.214;6.556;2023-04-24T00:51:33;1.05;;;0.98;;
51907;SDS011;39320;53.214;6.556;2023-04-24T00:53:59;0.80;;;0.80;;
51907;SDS011;39320;53.214;6.556;2023-04-24T00:56:25;1.08;;;0.95;;
51907;SDS011;39320;53.214;6.556;2023-04-24T00:58:52;0.57;;;0.57;;
51907;SDS011;39320;53.214;6.556;2023-04-24T01:01:19;0.57;;;0.57;;
51907;SDS011;39320;53.214;6.556;2023-04-24T01:03:46;1.70;;;0.70;;
51907;SDS011;39320;53.214;6.556;2023-04-24T01:06:12;0.60;;;0.60;;
51907;SDS011;39320;53.214;6.556;2023-04-24T01:08:39;1.42;;;0.77;;
51907;SDS011;39320;53.214;6.556;2023-04-24T01:11:06;0.68;;;0.65;;
51907;SDS011;39320;53.214;6.556;2023-04-24T01:13:32;0.73;;;0.73;;
51907;SDS011;39320;53.214;6.556;2023-04-24T01:15:58;0.60;;;0.60;;
51907;SDS011;39320;53.214;6.556;2023-04-24T01:18:25;0.50;;;0.50;;
51907;SDS011;39320;53.214;6.556;2023-04-24T01:20:59;0.95;;;0.85;;
51907;SDS011;39320;53.214;6.556;2023-04-24T01:23:27;0.60;;;0.60;;
51907;SDS011;39320;53.214;6.556;2023-04-24T01:25:53;0.73;;;0.73;;
51907;SDS011;39320;53.214;6.556;2023-04-24T01:28:19;0.50;;;0.50;;
51907;SDS011;39320;53.214;6.556;2023-04-24T01:30:45;0.60;;;0.60;;
51907;SDS011;39320;53.214;6.556;2023-04-24T01:33:10;0.85;;;0.70;;
51907;SDS011;39320;53.214;6.556;2023-04-24T01:35:39;0.50;;;0.50;;
51907;SDS011;39320;53.214;6.556;2023-04-24T01:38:05;1.10;;;0.60;;
51907;SDS011;39320;53.214;6.556;2023-04-24T01:40:31;0.60;;;0.60;;
51907;SDS011;39320;53.214;6.556;2023-04-24T01:42:57;1.30;;;0.60;;
51907;SDS011;39320;53.214;6.556;2023-04-24T01:45:23;0.60;;;0.60;;
51907;SDS011;39320;53.214;6.556;2023-04-24T01:47:50;0.73;;;0.73;;
51907;SDS011;39320;53.214;6.556;2023-04-24T01:50:16;0.80;;;0.80;;
51907;SDS011;39320;53.214;6.556;2023-04-24T01:52:42;0.82;;;0.82;;
51907;SDS011;39320;53.214;6.556;2023-04-24T01:55:08;0.80;;;0.80;;
51907;SDS011;39320;53.214;6.556;2023-04-24T01:57:34;0.82;;;0.77;;
51907;SDS011;39320;53.214;6.556;2023-04-24T02:00:03;0.80;;;0.80;;
51907;SDS011;39320;53.214;6.556;2023-04-24T02:02:31;1.00;;;0.90;;
51907;SDS011;39320;53.214;6.556;2023-04-24T02:04:57;1.60;;;0.95;;
51907;SDS011;39320;53.214;6.556;2023-04-24T02:07:23;1.17;;;1.10;;
51907;SDS011;39320;53.214;6.556;2023-04-24T02:09:48;1.35;;;1.08;;
51907;SDS011;39320;53.214;6.556;2023-04-24T02:12:14;0.90;;;0.90;;
51907;SDS011;39320;53.214;6.556;2023-04-24T02:14:42;1.13;;;1.05;;
51907;SDS011;39320;53.214;6.556;2023-04-24T02:17:08;1.40;;;1.30;;
51907;SDS011;39320;53.214;6.556;2023-04-24T02:19:34;0.93;;;0.93;;
51907;SDS011;39320;53.214;6.556;2023-04-24T02:22:00;2.00;;;1.23;;
51907;SDS011;39320;53.214;6.556;2023-04-24T02:24:26;1.50;;;1.40;;
51907;SDS011;39320;53.214;6.556;2023-04-24T02:26:51;1.50;;;1.40;;
51907;SDS011;39320;53.214;6.556;2023-04-24T02:29:17;1.50;;;1.40;;
51907;SDS011;39320;53.214;6.556;2023-04-24T02:31:43;1.60;;;1.50;;
51907;SDS011;39320;53.214;6.556;2023-04-24T02:34:09;1.70;;;1.60;;
51907;SDS011;39320;53.214;6.556;2023-04-24T02:36:35;1.70;;;1.60;;
51907;SDS011;39320;53.214;6.556;2023-04-24T02:39:01;2.13;;;2.03;;
51907;SDS011;39320;53.214;6.556;2023-04-24T02:41:27;1.70;;;1.60;;
51907;SDS011;39320;53.214;6.556;2023-04-24T02:44:00;2.05;;;1.85;;
51907;SDS011;39320;53.214;6.556;2023-04-24T02:46:26;1.85;;;1.75;;
51907;SDS011;39320;53.214;6.556;2023-04-24T02:48:52;1.80;;;1.70;;
51907;SDS011;39320;53.214;6.556;2023-04-24T02:51:17;2.15;;;2.00;;
51907;SDS011;39320;53.214;6.556;2023-04-24T02:53:43;2.28;;;2.10;;
51907;SDS011;39320;53.214;6.556;2023-04-24T02:56:09;2.47;;;2.28;;
51907;SDS011;39320;53.214;6.556;2023-04-24T02:58:37;2.10;;;1.90;;
51907;SDS011;39320;53.214;6.556;2023-04-24T03:01:03;2.60;;;2.40;;
51907;SDS011;39320;53.214;6.556;2023-04-24T03:03:29;2.15;;;2.00;;
51907;SDS011;39320;53.214;6.556;2023-04-24T03:05:55;2.42;;;2.22;;
51907;SDS011;39320;53.214;6.556;2023-04-24T03:08:22;2.47;;;2.28;;
51907;SDS011;39320;53.214;6.556;2023-04-24T03:10:48;2.50;;;2.30;;
51907;SDS011;39320;53.214;6.556;2023-04-24T03:13:15;2.88;;;2.60;;
51907;SDS011;39320;53.214;6.556;2023-04-24T03:15:41;2.55;;;2.35;;
51907;SDS011;39320;53.214;6.556;2023-04-24T03:18:07;2.92;;;2.72;;
51907;SDS011;39320;53.214;6.556;2023-04-24T03:20:32;2.90;;;2.70;;
51907;SDS011;39320;53.214;6.556;2023-04-24T03:22:58;3.35;;;3.05;;
51907;SDS011;39320;53.214;6.556;2023-04-24T03:25:24;2.95;;;2.67;;
51907;SDS011;39320;53.214;6.556;2023-04-24T03:27:50;3.70;;;2.92;;
51907;SDS011;39320;53.214;6.556;2023-04-24T03:30:16;3.13;;;2.83;;
51907;SDS011;39320;53.214;6.556;2023-04-24T03:32:42;3.05;;;2.85;;
51907;SDS011;39320;53.214;6.556;2023-04-24T03:35:08;3.70;;;3.40;;
51907;SDS011;39320;53.214;6.556;2023-04-24T03:37:33;3.35;;;3.15;;
51907;SDS011;39320;53.214;6.556;2023-04-24T03:39:59;3.38;;;3.08;;
51907;SDS011;39320;53.214;6.556;2023-04-24T03:42:26;4.40;;;3.88;;
51907;SDS011;39320;53.214;6.556;2023-04-24T03:44:52;3.65;;;3.35;;
51907;SDS011;39320;53.214;6.556;2023-04-24T03:47:18;4.63;;;4.22;;
51907;SDS011;39320;53.214;6.556;2023-04-24T03:49:43;4.40;;;4.00;;
51907;SDS011;39320;53.214;6.556;2023-04-24T03:52:09;5.50;;;4.47;;
51907;SDS011;39320;53.214;6.556;2023-04-24T03:54:35;5.18;;;4.78;;
51907;SDS011;39320;53.214;6.556;2023-04-24T03:57:00;3.95;;;3.65;;
51907;SDS011;39320;53.214;6.556;2023-04-24T03:59:26;5.38;;;4.97;;
51907;SDS011;39320;53.214;6.556;2023-04-24T04:01:52;5.43;;;4.95;;
51907;SDS011;39320;53.214;6.556;2023-04-24T04:04:18;5.82;;;5.43;;
51907;SDS011;39320;53.214;6.556;2023-04-24T04:06:44;5.22;;;4.82;;
51907;SDS011;39320;53.214;6.556;2023-04-24T04:09:11;5.97;;;5.47;;
51907;SDS011;39320;53.214;6.556;2023-04-24T04:11:37;5.95;;;5.45;;
51907;SDS011;39320;53.214;6.556;2023-04-24T04:14:03;5.53;;;5.13;;
51907;SDS011;39320;53.214;6.556;2023-04-24T04:16:29;5.60;;;5.15;;
51907;SDS011;39320;53.214;6.556;2023-04-24T04:18:54;5.95;;;5.45;;
51907;SDS011;39320;53.214;6.556;2023-04-24T04:21:20;5.13;;;4.63;;
51907;SDS011;39320;53.214;6.556;2023-04-24T04:23:46;4.75;;;4.35;;
51907;SDS011;39320;53.214;6.556;2023-04-24T04:26:13;4.78;;;4.38;;
51907;SDS011;39320;53.214;6.556;2023-04-24T04:28:38;5.50;;;4.95;;
51907;SDS011;39320;53.214;6.556;2023-04-24T04:31:04;4.50;;;4.18;;
51907;SDS011;39320;53.214;6.556;2023-04-24T04:33:32;4.35;;;4.03;;
51907;SDS011;39320;53.214;6.556;2023-04-24T04:35:59;4.72;;;4.32;;
51907;SDS011;39320;53.214;6.556;2023-04-24T04:38:25;4.22;;;3.92;;
51907;SDS011;39320;53.214;6.556;2023-04-24T04:40:55;3.88;;;3.58;;
51907;SDS011;39320;53.214;6.556;2023-04-24T04:43:24;3.88;;;3.58;;
51907;SDS011;39320;53.214;6.556;2023-04-24T04:45:50;4.57;;;4.18;;
51907;SDS011;39320;53.214;6.556;2023-04-24T04:48:16;4.00;;;3.70;;
51907;SDS011;39320;53.214;6.556;2023-04-24T04:50:43;4.05;;;3.72;;
51907;SDS011;39320;53.214;6.556;2023-04-24T04:53:09;3.97;;;3.67;;
51907;SDS011;39320;53.214;6.556;2023-04-24T04:55:35;3.97;;;3.67;;
51907;SDS011;39320;53.214;6.556;2023-04-24T04:58:02;4.00;;;3.60;;
51907;SDS011;39320;53.214;6.556;2023-04-24T05:00:27;3.55;;;3.25;;
51907;SDS011;39320;53.214;6.556;2023-04-24T05:02:58;3.65;;;2.95;;
51907;SDS011;39320;53.214;6.556;2023-04-24T05:05:24;2.33;;;1.95;;
51907;SDS011;39320;53.214;6.556;2023-04-24T05:13:20;2.30;;;2.10;;
51907;SDS011;39320;53.214;6.556;2023-04-24T05:15:46;2.15;;;1.95;;
51907;SDS011;39320;53.214;6.556;2023-04-24T05:21:36;2.63;;;2.42;;
51907;SDS011;39320;53.214;6.556;2023-04-24T05:24:02;2.00;;;1.90;;
51907;SDS011;39320;53.214;6.556;2023-04-24T05:26:28;2.25;;;2.13;;
51907;SDS011;39320;53.214;6.556;2023-04-24T05:28:54;2.40;;;1.65;;
51907;SDS011;39320;53.214;6.556;2023-04-24T05:31:20;2.38;;;1.70;;
51907;SDS011;39320;53.214;6.556;2023-04-24T05:33:46;1.90;;;1.80;;
51907;SDS011;39320;53.214;6.556;2023-04-24T05:36:12;2.15;;;2.00;;
51907;SDS011;39320;53.214;6.556;2023-04-24T05:38:38;3.30;;;2.17;;
51907;SDS011;39320;53.214;6.556;2023-04-24T05:41:03;1.85;;;1.75;;
51907;SDS011;39320;53.214;6.556;2023-04-24T05:43:29;1.80;;;1.70;;
51907;SDS011;39320;53.214;6.556;2023-04-24T05:45:55;2.83;;;2.17;;
51907;SDS011;39320;53.214;6.556;2023-04-24T05:48:21;1.98;;;1.73;;
51907;SDS011;39320;53.214;6.556;2023-04-24T05:50:49;1.98;;;1.80;;
51907;SDS011;39320;53.214;6.556;2023-04-24T05:53:15;1.60;;;1.50;;
51907;SDS011;39320;53.214;6.556;2023-04-24T05:55:41;2.05;;;1.85;;
51907;SDS011;39320;53.214;6.556;2023-04-24T05:58:07;2.30;;;1.60;;
51907;SDS011;39320;53.214;6.556;2023-04-24T06:00:33;1.60;;;1.48;;
51907;SDS011;39320;53.214;6.556;2023-04-24T06:02:59;2.92;;;1.73;;
51907;SDS011;39320;53.214;6.556;2023-04-24T06:05:25;1.55;;;1.40;;
51907;SDS011;39320;53.214;6.556;2023-04-24T06:07:51;1.67;;;1.58;;
51907;SDS011;39320;53.214;6.556;2023-04-24T06:10:17;1.40;;;1.30;;
51907;SDS011;39320;53.214;6.556;2023-04-24T06:12:43;1.65;;;1.35;;
51907;SDS011;39320;53.214;6.556;2023-04-24T06:15:09;2.00;;;1.80;;
51907;SDS011;39320;53.214;6.556;2023-04-24T06:17:35;1.85;;;1.70;;
51907;SDS011;39320;53.214;6.556;2023-04-24T06:20:01;1.98;;;1.85;;
51907;SDS011;39320;53.214;6.556;2023-04-24T06:22:30;1.85;;;1.63;;
51907;SDS011;39320;53.214;6.556;2023-04-24T06:24:56;2.15;;;1.85;;
51907;SDS011;39320;53.214;6.556;2023-04-24T06:27:21;3.55;;;3.25;;
51907;SDS011;39320;53.214;6.556;2023-04-24T06:29:47;2.90;;;2.58;;
51907;SDS011;39320;53.214;6.556;2023-04-24T06:32:19;2.42;;;2.22;;
51907;SDS011;39320;53.214;6.556;2023-04-24T06:34:49;4.13;;;2.70;;
51907;SDS011;39320;53.214;6.556;2023-04-24T06:37:15;2.85;;;2.63;;
51907;SDS011;39320;53.214;6.556;2023-04-24T06:39:41;3.05;;;2.63;;
51907;SDS011;39320;53.214;6.556;2023-04-24T06:42:07;2.70;;;2.50;;
51907;SDS011;39320;53.214;6.556;2023-04-24T06:44:34;2.58;;;2.38;;
51907;SDS011;39320;53.214;6.556;2023-04-24T06:47:05;2.78;;;2.58;;
51907;SDS011;39320;53.214;6.556;2023-04-24T06:49:35;3.30;;;2.65;;
51907;SDS011;39320;53.214;6.556;2023-04-24T06:52:05;2.88;;;2.63;;
51907;SDS011;39320;53.214;6.556;2023-04-24T06:54:31;2.65;;;2.30;;
51907;SDS011;39320;53.214;6.556;2023-04-24T06:56:57;2.30;;;2.10;;
51907;SDS011;39320;53.214;6.556;2023-04-24T06:59:25;3.50;;;2.30;;
51907;SDS011;39320;53.214;6.556;2023-04-24T07:01:52;2.22;;;1.55;;
51907;SDS011;39320;53.214;6.556;2023-04-24T07:04:17;1.77;;;1.60;;
51907;SDS011;39320;53.214;6.556;2023-04-24T07:06:44;2.47;;;1.27;;
51907;SDS011;39320;53.214;6.556;2023-04-24T07:09:11;1.80;;;1.52;;
51907;SDS011;39320;53.214;6.556;2023-04-24T07:11:38;3.10;;;1.38;;
51907;SDS011;39320;53.214;6.556;2023-04-24T07:14:05;1.13;;;1.02;;
51907;SDS011;39320;53.214;6.556;2023-04-24T07:16:32;2.88;;;1.13;;
51907;SDS011;39320;53.214;6.556;2023-04-24T07:18:58;1.35;;;1.25;;
51907;SDS011;39320;53.214;6.556;2023-04-24T07:21:23;2.25;;;1.20;;
51907;SDS011;39320;53.214;6.556;2023-04-24T07:23:50;2.15;;;1.15;;
51907;SDS011;39320;53.214;6.556;2023-04-24T07:26:16;2.83;;;1.15;;
51907;SDS011;39320;53.214;6.556;2023-04-24T07:28:42;2.92;;;1.20;;
51907;SDS011;39320;53.214;6.556;2023-04-24T07:31:08;1.90;;;1.38;;
51907;SDS011;39320;53.214;6.556;2023-04-24T07:33:33;2.10;;;1.90;;
51907;SDS011;39320;53.214;6.556;2023-04-24T07:36:01;1.77;;;1.45;;
51907;SDS011;39320;53.214;6.556;2023-04-24T07:38:29;1.60;;;1.45;;
51907;SDS011;39320;53.214;6.556;2023-04-24T07:40:56;2.00;;;1.40;;
51907;SDS011;39320;53.214;6.556;2023-04-24T07:43:23;2.63;;;2.15;;
51907;SDS011;39320;53.214;6.556;2023-04-24T07:45:49;1.83;;;1.65;;
51907;SDS011;39320;53.214;6.556;2023-04-24T07:48:16;2.30;;;1.73;;
51907;SDS011;39320;53.214;6.556;2023-04-24T07:50:43;3.25;;;1.80;;
51907;SDS011;39320;53.214;6.556;2023-04-24T07:53:09;4.95;;;1.77;;
51907;SDS011;39320;53.214;6.556;2023-04-24T07:55:35;3.92;;;2.03;;
51907;SDS011;39320;53.214;6.556;2023-04-24T07:58:01;2.90;;;2.25;;
51907;SDS011;39320;53.214;6.556;2023-04-24T08:00:27;2.72;;;2.15;;
51907;SDS011;39320;53.214;6.556;2023-04-24T08:02:53;2.60;;;2.40;;
51907;SDS011;39320;53.214;6.556;2023-04-24T08:05:18;3.72;;;2.65;;
51907;SDS011;39320;53.214;6.556;2023-04-24T08:07:45;3.83;;;2.85;;
51907;SDS011;39320;53.214;6.556;2023-04-24T08:10:15;4.20;;;3.08;;
51907;SDS011;39320;53.214;6.556;2023-04-24T08:12:41;4.75;;;4.15;;
51907;SDS011;39320;53.214;6.556;2023-04-24T08:15:07;5.07;;;4.50;;
51907;SDS011;39320;53.214;6.556;2023-04-24T08:17:36;6.28;;;5.32;;
51907;SDS011;39320;53.214;6.556;2023-04-24T08:20:03;6.07;;;5.20;;
51907;SDS011;39320;53.214;6.556;2023-04-24T08:22:33;8.07;;;5.82;;
51907;SDS011;39320;53.214;6.556;2023-04-24T08:24:59;8.82;;;5.85;;
51907;SDS011;39320;53.214;6.556;2023-04-24T08:27:25;7.90;;;6.32;;
51907;SDS011;39320;53.214;6.556;2023-04-24T08:29:54;7.72;;;6.93;;
51907;SDS011;39320;53.214;6.556;2023-04-24T08:32:20;8.40;;;7.50;;
51907;SDS011;39320;53.214;6.556;2023-04-24T08:34:46;8.55;;;7.03;;
51907;SDS011;39320;53.214;6.556;2023-04-24T08:37:12;7.72;;;7.00;;
51907;SDS011;39320;53.214;6.556;2023-04-24T08:39:38;7.85;;;6.47;;
51907;SDS011;39320;53.214;6.556;2023-04-24T08:42:04;7.68;;;6.30;;
51907;SDS011;39320;53.214;6.556;2023-04-24T08:44:34;6.80;;;6.10;;
51907;SDS011;39320;53.214;6.556;2023-04-24T08:47:01;8.18;;;6.78;;
51907;SDS011;39320;53.214;6.556;2023-04-24T08:49:28;8.77;;;6.20;;
51907;SDS011;39320;53.214;6.556;2023-04-24T08:51:57;5.65;;;5.15;;
51907;SDS011;39320;53.214;6.556;2023-04-24T08:54:26;6.43;;;5.72;;
51907;SDS011;39320;53.214;6.556;2023-04-24T08:56:52;7.45;;;5.38;;
51907;SDS011;39320;53.214;6.556;2023-04-24T08:59:23;5.43;;;4.93;;
51907;SDS011;39320;53.214;6.556;2023-04-24T09:01:49;7.03;;;6.07;;
51907;SDS011;39320;53.214;6.556;2023-04-24T09:04:17;5.90;;;5.30;;
51907;SDS011;39320;53.214;6.556;2023-04-24T09:06:47;6.22;;;5.18;;
51907;SDS011;39320;53.214;6.556;2023-04-24T09:09:14;6.82;;;6.20;;
51907;SDS011;39320;53.214;6.556;2023-04-24T09:11:42;7.45;;;6.70;;
51907;SDS011;39320;53.214;6.556;2023-04-24T09:14:09;7.88;;;7.07;;
51907;SDS011;39320;53.214;6.556;2023-04-24T09:16:36;8.50;;;7.45;;
51907;SDS011;39320;53.214;6.556;2023-04-24T09:19:02;8.70;;;7.43;;
51907;SDS011;39320;53.214;6.556;2023-04-24T09:21:31;7.50;;;5.60;;
51907;SDS011;39320;53.214;6.556;2023-04-24T09:24:03;7.40;;;5.65;;
51907;SDS011;39320;53.214;6.556;2023-04-24T09:26:35;7.60;;;4.82;;
51907;SDS011;39320;53.214;6.556;2023-04-24T09:29:04;6.03;;;4.78;;
51907;SDS011;39320;53.214;6.556;2023-04-24T09:31:30;4.72;;;4.32;;
51907;SDS011;39320;53.214;6.556;2023-04-24T09:36:30;4.65;;;4.07;;
51907;SDS011;39320;53.214;6.556;2023-04-24T09:39:07;5.18;;;4.60;;
51907;SDS011;39320;53.214;6.556;2023-04-24T09:41:44;5.15;;;4.63;;
51907;SDS011;39320;53.214;6.556;2023-04-24T09:44:14;5.93;;;4.28;;
51907;SDS011;39320;53.214;6.556;2023-04-24T09:46:42;5.63;;;4.40;;
51907;SDS011;39320;53.214;6.556;2023-04-24T09:49:09;6.10;;;4.60;;
51907;SDS011;39320;53.214;6.556;2023-04-24T09:51:38;7.82;;;4.43;;
51907;SDS011;39320;53.214;6.556;2023-04-24T09:54:04;6.38;;;4.53;;
51907;SDS011;39320;53.214;6.556;2023-04-24T09:56:55;5.20;;;4.03;;
51907;SDS011;39320;53.214;6.556;2023-04-24T09:59:21;5.43;;;3.53;;
51907;SDS011;39320;53.214;6.556;2023-04-24T10:01:47;5.78;;;4.07;;
51907;SDS011;39320;53.214;6.556;2023-04-24T10:04:26;4.50;;;3.45;;
51907;SDS011;39320;53.214;6.556;2023-04-24T10:06:55;3.83;;;2.75;;
51907;SDS011;39320;53.214;6.556;2023-04-24T10:09:22;3.92;;;3.50;;
51907;SDS011;39320;53.214;6.556;2023-04-24T10:11:50;4.20;;;3.38;;
51907;SDS011;39320;53.214;6.556;2023-04-24T10:14:20;3.60;;;2.63;;
51907;SDS011;39320;53.214;6.556;2023-04-24T10:16:47;2.72;;;2.40;;
51907;SDS011;39320;53.214;6.556;2023-04-24T10:19:15;3.45;;;2.42;;
51907;SDS011;39320;53.214;6.556;2023-04-24T10:21:43;6.05;;;2.53;;
51907;SDS011;39320;53.214;6.556;2023-04-24T10:24:15;3.38;;;2.08;;
51907;SDS011;39320;53.214;6.556;2023-04-24T10:26:43;4.15;;;2.60;;
51907;SDS011;39320;53.214;6.556;2023-04-24T10:29:11;3.10;;;2.15;;
51907;SDS011;39320;53.214;6.556;2023-04-24T10:31:38;3.45;;;2.40;;
51907;SDS011;39320;53.214;6.556;2023-04-24T10:34:05;4.32;;;2.00;;
51907;SDS011;39320;53.214;6.556;2023-04-24T10:36:32;3.90;;;2.30;;
51907;SDS011;39320;53.214;6.556;2023-04-24T10:39:01;3.08;;;2.03;;
51907;SDS011;39320;53.214;6.556;2023-04-24T10:41:31;4.65;;;2.50;;
51907;SDS011;39320;53.214;6.556;2023-04-24T10:44:07;2.80;;;1.90;;
51907;SDS011;39320;53.214;6.556;2023-04-24T10:46:37;2.97;;;2.17;;
51907;SDS011;39320;53.214;6.556;2023-04-24T10:49:07;4.40;;;2.28;;
51907;SDS011;39320;53.214;6.556;2023-04-24T10:51:47;4.00;;;1.85;;
51907;SDS011;39320;53.214;6.556;2023-04-24T10:54:23;2.50;;;1.80;;
51907;SDS011;39320;53.214;6.556;2023-04-24T10:56:52;3.92;;;2.35;;
51907;SDS011;39320;53.214;6.556;2023-04-24T10:59:38;3.03;;;2.13;;
51907;SDS011;39320;53.214;6.556;2023-04-24T11:02:04;3.20;;;2.03;;
51907;SDS011;39320;53.214;6.556;2023-04-24T11:04:33;2.67;;;1.80;;
51907;SDS011;39320;53.214;6.556;2023-04-24T11:07:02;3.72;;;2.13;;
51907;SDS011;39320;53.214;6.556;2023-04-24T11:09:32;2.22;;;1.70;;
51907;SDS011;39320;53.214;6.556;2023-04-24T11:12:04;2.30;;;1.75;;
51907;SDS011;39320;53.214;6.556;2023-04-24T11:20:06;6.10;;;1.77;;
51907;SDS011;39320;53.214;6.556;2023-04-24T11:22:34;4.28;;;1.80;;
51907;SDS011;39320;53.214;6.556;2023-04-24T11:25:02;2.97;;;2.05;;
51907;SDS011;39320;53.214;6.556;2023-04-24T11:27:38;2.25;;;1.70;;
51907;SDS011;39320;53.214;6.556;2023-04-24T11:30:08;4.30;;;1.50;;
51907;SDS011;39320;53.214;6.556;2023-04-24T11:32:39;5.00;;;1.60;;
51907;SDS011;39320;53.214;6.556;2023-04-24T11:35:19;2.30;;;1.65;;
51907;SDS011;39320;53.214;6.556;2023-04-24T11:37:53;5.03;;;3.35;;
51907;SDS011;39320;53.214;6.556;2023-04-24T11:40:20;4.68;;;1.95;;
51907;SDS011;39320;53.214;6.556;2023-04-24T11:42:51;4.63;;;1.70;;
51907;SDS011;39320;53.214;6.556;2023-04-24T11:45:24;3.45;;;1.85;;
51907;SDS011;39320;53.214;6.556;2023-04-24T11:47:52;2.58;;;1.50;;
51907;SDS011;39320;53.214;6.556;2023-04-24T11:50:20;3.00;;;1.38;;
51907;SDS011;39320;53.214;6.556;2023-04-24T11:52:49;2.80;;;1.50;;
51907;SDS011;39320;53.214;6.556;2023-04-24T11:57:44;1.80;;;1.30;;
51907;SDS011;39320;53.214;6.556;2023-04-24T12:00:15;2.38;;;1.65;;
51907;SDS011;39320;53.214;6.556;2023-04-24T12:02:45;1.77;;;1.63;;
51907;SDS011;39320;53.214;6.556;2023-04-24T12:05:25;2.47;;;1.13;;
51907;SDS011;39320;53.214;6.556;2023-04-24T12:07:56;3.47;;;1.50;;
51907;SDS011;39320;53.214;6.556;2023-04-24T12:10:26;2.75;;;1.38;;
51907;SDS011;39320;53.214;6.556;2023-04-24T12:12:55;3.65;;;1.90;;
51907;SDS011;39320;53.214;6.556;2023-04-24T12:15:21;3.33;;;1.38;;
51907;SDS011;39320;53.214;6.556;2023-04-24T12:17:50;3.38;;;1.83;;
51907;SDS011;39320;53.214;6.556;2023-04-24T12:20:17;5.20;;;1.85;;
51907;SDS011;39320;53.214;6.556;2023-04-24T12:22:55;3.65;;;1.80;;
51907;SDS011;39320;53.214;6.556;2023-04-24T12:25:23;2.95;;;1.70;;
51907;SDS011;39320;53.214;6.556;2023-04-24T12:30:28;2.03;;;1.33;;
51907;SDS011;39320;53.214;6.556;2023-04-24T12:32:56;2.47;;;1.30;;
51907;SDS011;39320;53.214;6.556;2023-04-24T12:35:24;1.08;;;0.98;;
51907;SDS011;39320;53.214;6.556;2023-04-24T12:37:52;1.42;;;1.33;;
51907;SDS011;39320;53.214;6.556;2023-04-24T12:40:19;4.70;;;1.10;;
51907;SDS011;39320;53.214;6.556;2023-04-24T12:42:46;1.77;;;1.63;;
51907;SDS011;39320;53.214;6.556;2023-04-24T12:45:19;2.35;;;1.00;;
51907;SDS011;39320;53.214;6.556;2023-04-24T12:47:45;2.13;;;1.13;;
51907;SDS011;39320;53.214;6.556;2023-04-24T12:50:14;2.08;;;0.98;;
51907;SDS011;39320;53.214;6.556;2023-04-24T12:52:41;2.05;;;0.85;;
51907;SDS011;39320;53.214;6.556;2023-04-24T12:55:08;2.20;;;0.90;;
51907;SDS011;39320;53.214;6.556;2023-04-24T12:57:34;2.08;;;1.08;;
51907;SDS011;39320;53.214;6.556;2023-04-24T13:00:02;2.30;;;1.20;;
51907;SDS011;39320;53.214;6.556;2023-04-24T13:02:29;2.55;;;1.23;;
51907;SDS011;39320;53.214;6.556;2023-04-24T13:04:56;0.85;;;0.77;;
51907;SDS011;39320;53.214;6.556;2023-04-24T13:07:26;2.13;;;0.85;;
51907;SDS011;39320;53.214;6.556;2023-04-24T13:09:52;1.40;;;0.98;;
51907;SDS011;39320;53.214;6.556;2023-04-24T13:12:19;4.07;;;1.75;;
51907;SDS011;39320;53.214;6.556;2023-04-24T13:14:45;2.83;;;1.13;;
51907;SDS011;39320;53.214;6.556;2023-04-24T13:17:12;1.90;;;1.00;;
51907;SDS011;39320;53.214;6.556;2023-04-24T13:19:41;4.25;;;1.20;;
51907;SDS011;39320;53.214;6.556;2023-04-24T13:22:08;2.42;;;1.38;;
51907;SDS011;39320;53.214;6.556;2023-04-24T13:24:35;1.67;;;1.02;;
51907;SDS011;39320;53.214;6.556;2023-04-24T13:27:01;3.53;;;1.08;;
51907;SDS011;39320;53.214;6.556;2023-04-24T13:29:27;2.03;;;1.10;;
51907;SDS011;39320;53.214;6.556;2023-04-24T13:31:56;2.40;;;1.05;;
51907;SDS011;39320;53.214;6.556;2023-04-24T13:34:25;2.60;;;1.10;;
51907;SDS011;39320;53.214;6.556;2023-04-24T13:36:52;1.63;;;0.98;;
51907;SDS011;39320;53.214;6.556;2023-04-24T13:39:19;1.60;;;0.80;;
51907;SDS011;39320;53.214;6.556;2023-04-24T13:41:45;2.65;;;1.15;;
51907;SDS011;39320;53.214;6.556;2023-04-24T13:44:13;1.25;;;0.88;;
51907;SDS011;39320;53.214;6.556;2023-04-24T13:46:39;1.80;;;0.77;;
51907;SDS011;39320;53.214;6.556;2023-04-24T13:49:05;1.67;;;0.80;;
51907;SDS011;39320;53.214;6.556;2023-04-24T13:51:31;1.20;;;0.70;;
51907;SDS011;39320;53.214;6.556;2023-04-24T13:53:57;1.83;;;0.80;;
51907;SDS011;39320;53.214;6.556;2023-04-24T13:56:23;0.80;;;0.55;;
51907;SDS011;39320;53.214;6.556;2023-04-24T13:58:49;1.92;;;1.15;;
51907;SDS011;39320;53.214;6.556;2023-04-24T14:01:14;1.27;;;1.02;;
51907;SDS011;39320;53.214;6.556;2023-04-24T14:03:41;1.95;;;1.23;;
51907;SDS011;39320;53.214;6.556;2023-04-24T14:06:08;5.22;;;1.33;;
51907;SDS011;39320;53.214;6.556;2023-04-24T14:08:34;3.58;;;1.23;;
51907;SDS011;39320;53.214;6.556;2023-04-24T14:11:00;2.10;;;1.23;;
51907;SDS011;39320;53.214;6.556;2023-04-24T14:13:26;6.07;;;2.58;;
51907;SDS011;39320;53.214;6.556;2023-04-24T14:15:52;2.75;;;1.80;;
51907;SDS011;39320;53.214;6.556;2023-04-24T14:18:18;2.63;;;1.60;;
51907;SDS011;39320;53.214;6.556;2023-04-24T14:20:44;2.72;;;1.40;;
51907;SDS011;39320;53.214;6.556;2023-04-24T14:23:10;3.78;;;1.58;;
51907;SDS011;39320;53.214;6.556;2023-04-24T14:25:36;4.22;;;1.85;;
51907;SDS011;39320;53.214;6.556;2023-04-24T14:28:02;3.42;;;1.73;;
51907;SDS011;39320;53.214;6.556;2023-04-24T14:30:28;3.53;;;1.70;;
51907;SDS011;39320;53.214;6.556;2023-04-24T14:32:57;2.85;;;1.90;;
51907;SDS011;39320;53.214;6.556;2023-04-24T14:35:22;2.47;;;1.77;;
51907;SDS011;39320;53.214;6.556;2023-04-24T14:37:48;3.38;;;2.15;;
51907;SDS011;39320;53.214;6.556;2023-04-24T14:40:14;2.75;;;1.98;;
51907;SDS011;39320;53.214;6.556;2023-04-24T14:42:40;6.05;;;2.17;;
51907;SDS011;39320;53.214;6.556;2023-04-24T14:45:06;4.43;;;1.88;;
51907;SDS011;39320;53.214;6.556;2023-04-24T14:47:33;2.47;;;1.92;;
51907;SDS011;39320;53.214;6.556;2023-04-24T14:49:59;2.00;;;1.52;;
51907;SDS011;39320;53.214;6.556;2023-04-24T14:52:25;3.42;;;1.67;;
51907;SDS011;39320;53.214;6.556;2023-04-24T14:54:50;3.10;;;1.63;;
51907;SDS011;39320;53.214;6.556;2023-04-24T14:57:16;2.72;;;1.50;;
51907;SDS011;39320;53.214;6.556;2023-04-24T14:59:42;3.67;;;2.38;;
51907;SDS011;39320;53.214;6.556;2023-04-24T15:02:13;4.78;;;1.67;;
51907;SDS011;39320;53.214;6.556;2023-04-24T15:04:39;3.70;;;2.42;;
51907;SDS011;39320;53.214;6.556;2023-04-24T15:07:08;3.33;;;1.80;;
51907;SDS011;39320;53.214;6.556;2023-04-24T15:09:33;5.32;;;2.15;;